sensor_id;sensor_type;location;lat;lon;timestamp;P1;durP1;ratioP1;P2;durP2;ratioP2
63016;SDS011;50274;45.640;11.756;2024-02-23T00:01:45;45.97;;;27.17;;
63016;SDS011;50274;45.640;11.756;2024-02-23T00:04:14;42.63;;;25.70;;
63016;SDS011;50274;45.640;11.756;2024-02-23T00:06:41;42.00;;;26.52;;
63016;SDS011;50274;45.640;11.756;2024-02-23T00:09:06;42.60;;;25.65;;
63016;SDS011;50274;45.640;11.756;2024-02-23T00:11:32;44.80;;;25.73;;
63016;SDS011;50274;45.640;11.756;2024-02-23T00:13:59;39.78;;;23.60;;
63016;SDS011;50274;45.640;11.756;2024-02-23T00:16:25;39.80;;;24.40;;
63016;SDS011;50274;45.640;11.756;2024-02-23T00:18:54;38.65;;;22.70;;
63016;SDS011;50274;45.640;11.756;2024-02-23T00:21:20;42.63;;;22.97;;
63016;SDS011;50274;45.640;11.756;2024-02-23T00:23:46;37.42;;;22.27;;
63016;SDS011;50274;45.640;11.756;2024-02-23T00:26:11;37.05;;;22.48;;
63016;SDS011;50274;45.640;11.756;2024-02-23T00:28:37;38.07;;;22.00;;
63016;SDS011;50274;45.640;11.756;2024-02-23T00:31:03;41.05;;;24.17;;
63016;SDS011;50274;45.640;11.756;2024-02-23T00:33:29;37.10;;;22.97;;
63016;SDS011;50274;45.640;11.756;2024-02-23T00:35:55;36.03;;;22.05;;
63016;SDS011;50274;45.640;11.756;2024-02-23T00:38:21;38.00;;;22.05;;
63016;SDS011;50274;45.640;11.756;2024-02-23T00:40:47;35.90;;;21.55;;
63016;SDS011;50274;45.640;11.756;2024-02-23T00:43:12;34.37;;;21.00;;
63016;SDS011;50274;45.640;11.756;2024-02-23T00:45:38;34.53;;;20.63;;
63016;SDS011;50274;45.640;11.756;2024-02-23T00:48:04;34.30;;;21.33;;
63016;SDS011;50274;45.640;11.756;2024-02-23T00:50:31;35.15;;;20.92;;
63016;SDS011;50274;45.640;11.756;2024-02-23T00:52:57;32.58;;;19.35;;
63016;SDS011;50274;45.640;11.756;2024-02-23T00:55:23;32.97;;;20.50;;
63016;SDS011;50274;45.640;11.756;2024-02-23T00:57:51;32.57;;;19.43;;
63016;SDS011;50274;45.640;11.756;2024-02-23T01:00:17;34.17;;;19.00;;
63016;SDS011;50274;45.640;11.756;2024-02-23T01:02:43;32.97;;;20.20;;
63016;SDS011;50274;45.640;11.756;2024-02-23T01:05:09;32.03;;;18.25;;
63016;SDS011;50274;45.640;11.756;2024-02-23T01:07:35;28.93;;;17.13;;
63016;SDS011;50274;45.640;11.756;2024-02-23T01:10:02;29.55;;;17.85;;
63016;SDS011;50274;45.640;11.756;2024-02-23T01:12:29;29.08;;;18.60;;
63016;SDS011;50274;45.640;11.756;2024-02-23T01:14:55;30.00;;;17.08;;
63016;SDS011;50274;45.640;11.756;2024-02-23T01:17:20;28.77;;;16.83;;
63016;SDS011;50274;45.640;11.756;2024-02-23T01:19:46;28.88;;;16.08;;
63016;SDS011;50274;45.640;11.756;2024-02-23T01:22:12;26.00;;;15.65;;
63016;SDS011;50274;45.640;11.756;2024-02-23T01:24:39;25.92;;;15.15;;
63016;SDS011;50274;45.640;11.756;2024-02-23T01:27:05;26.13;;;14.53;;
63016;SDS011;50274;45.640;11.756;2024-02-23T01:29:33;24.77;;;15.00;;
63016;SDS011;50274;45.640;11.756;2024-02-23T01:31:59;27.70;;;15.77;;
63016;SDS011;50274;45.640;11.756;2024-02-23T01:34:26;25.70;;;14.37;;
63016;SDS011;50274;45.640;11.756;2024-02-23T01:36:52;23.70;;;13.73;;
63016;SDS011;50274;45.640;11.756;2024-02-23T01:39:18;24.23;;;14.25;;
63016;SDS011;50274;45.640;11.756;2024-02-23T01:41:43;25.77;;;14.53;;
63016;SDS011;50274;45.640;11.756;2024-02-23T01:44:10;26.50;;;15.45;;
63016;SDS011;50274;45.640;11.756;2024-02-23T01:46:36;26.30;;;16.00;;
63016;SDS011;50274;45.640;11.756;2024-02-23T01:49:02;28.60;;;16.50;;
63016;SDS011;50274;45.640;11.756;2024-02-23T01:51:30;27.10;;;16.85;;
63016;SDS011;50274;45.640;11.756;2024-02-23T01:53:57;29.53;;;18.33;;
63016;SDS011;50274;45.640;11.756;2024-02-23T01:56:23;24.35;;;15.55;;
63016;SDS011;50274;45.640;11.756;2024-02-23T01:58:49;22.90;;;16.20;;
63016;SDS011;50274;45.640;11.756;2024-02-23T02:01:15;23.40;;;14.87;;
63016;SDS011;50274;45.640;11.756;2024-02-23T02:03:41;25.07;;;14.43;;
63016;SDS011;50274;45.640;11.756;2024-02-23T02:06:09;22.55;;;13.95;;
63016;SDS011;50274;45.640;11.756;2024-02-23T02:08:35;20.48;;;12.20;;
63016;SDS011;50274;45.640;11.756;2024-02-23T02:11:02;20.55;;;11.82;;
63016;SDS011;50274;45.640;11.756;2024-02-23T02:13:28;19.83;;;12.10;;
63016;SDS011;50274;45.640;11.756;2024-02-23T02:15:55;18.38;;;11.60;;
63016;SDS011;50274;45.640;11.756;2024-02-23T02:18:22;16.85;;;9.93;;
63016;SDS011;50274;45.640;11.756;2024-02-23T02:20:51;18.20;;;10.70;;
63016;SDS011;50274;45.640;11.756;2024-02-23T02:23:22;18.27;;;10.60;;
63016;SDS011;50274;45.640;11.756;2024-02-23T02:25:52;14.80;;;8.85;;
63016;SDS011;50274;45.640;11.756;2024-02-23T02:28:22;18.88;;;10.35;;
63016;SDS011;50274;45.640;11.756;2024-02-23T02:30:49;15.88;;;10.10;;
63016;SDS011;50274;45.640;11.756;2024-02-23T02:33:16;16.33;;;10.07;;
63016;SDS011;50274;45.640;11.756;2024-02-23T02:35:42;14.20;;;8.63;;
63016;SDS011;50274;45.640;11.756;2024-02-23T02:38:08;14.70;;;8.70;;
63016;SDS011;50274;45.640;11.756;2024-02-23T02:40:35;15.98;;;9.32;;
63016;SDS011;50274;45.640;11.756;2024-02-23T02:43:01;15.03;;;9.07;;
63016;SDS011;50274;45.640;11.756;2024-02-23T02:45:26;14.88;;;9.07;;
63016;SDS011;50274;45.640;11.756;2024-02-23T02:47:52;16.53;;;9.63;;
63016;SDS011;50274;45.640;11.756;2024-02-23T02:50:18;14.27;;;8.57;;
63016;SDS011;50274;45.640;11.756;2024-02-23T02:52:44;15.63;;;8.82;;
63016;SDS011;50274;45.640;11.756;2024-02-23T02:55:10;13.87;;;7.93;;
63016;SDS011;50274;45.640;11.756;2024-02-23T02:57:35;12.57;;;7.88;;
63016;SDS011;50274;45.640;11.756;2024-02-23T03:00:02;13.80;;;8.43;;
63016;SDS011;50274;45.640;11.756;2024-02-23T03:02:33;13.27;;;7.75;;
63016;SDS011;50274;45.640;11.756;2024-02-23T03:04:58;13.20;;;7.17;;
63016;SDS011;50274;45.640;11.756;2024-02-23T03:07:24;12.25;;;7.10;;
63016;SDS011;50274;45.640;11.756;2024-02-23T03:09:50;13.52;;;8.07;;
63016;SDS011;50274;45.640;11.756;2024-02-23T03:12:16;12.80;;;7.13;;
63016;SDS011;50274;45.640;11.756;2024-02-23T03:14:43;11.60;;;7.57;;
63016;SDS011;50274;45.640;11.756;2024-02-23T03:17:09;13.65;;;7.15;;
63016;SDS011;50274;45.640;11.756;2024-02-23T03:19:35;12.13;;;6.88;;
63016;SDS011;50274;45.640;11.756;2024-02-23T03:22:02;11.50;;;6.85;;
63016;SDS011;50274;45.640;11.756;2024-02-23T03:24:28;11.37;;;6.77;;
63016;SDS011;50274;45.640;11.756;2024-02-23T03:26:54;10.30;;;6.30;;
63016;SDS011;50274;45.640;11.756;2024-02-23T03:29:21;9.73;;;6.03;;
63016;SDS011;50274;45.640;11.756;2024-02-23T03:31:50;10.45;;;5.10;;
63016;SDS011;50274;45.640;11.756;2024-02-23T03:34:16;10.05;;;5.97;;
63016;SDS011;50274;45.640;11.756;2024-02-23T03:36:42;11.47;;;5.80;;
63016;SDS011;50274;45.640;11.756;2024-02-23T03:39:08;10.13;;;5.10;;
63016;SDS011;50274;45.640;11.756;2024-02-23T03:41:34;9.45;;;5.47;;
63016;SDS011;50274;45.640;11.756;2024-02-23T03:44:00;9.97;;;5.40;;
63016;SDS011;50274;45.640;11.756;2024-02-23T03:46:25;10.73;;;5.28;;
63016;SDS011;50274;45.640;11.756;2024-02-23T03:48:51;10.13;;;5.20;;
63016;SDS011;50274;45.640;11.756;2024-02-23T03:51:17;10.27;;;5.27;;
63016;SDS011;50274;45.640;11.756;2024-02-23T03:53:43;10.40;;;5.47;;
63016;SDS011;50274;45.640;11.756;2024-02-23T03:56:09;9.23;;;5.30;;
63016;SDS011;50274;45.640;11.756;2024-02-23T03:58:35;7.10;;;4.00;;
63016;SDS011;50274;45.640;11.756;2024-02-23T04:01:00;8.48;;;4.57;;
63016;SDS011;50274;45.640;11.756;2024-02-23T04:03:26;8.80;;;4.20;;
63016;SDS011;50274;45.640;11.756;2024-02-23T04:05:52;10.48;;;4.68;;
63016;SDS011;50274;45.640;11.756;2024-02-23T04:08:18;6.97;;;3.75;;
63016;SDS011;50274;45.640;11.756;2024-02-23T04:10:44;7.40;;;4.17;;
63016;SDS011;50274;45.640;11.756;2024-02-23T04:13:10;7.38;;;3.60;;
63016;SDS011;50274;45.640;11.756;2024-02-23T04:15:39;7.28;;;4.05;;
63016;SDS011;50274;45.640;11.756;2024-02-23T04:18:05;7.25;;;3.50;;
63016;SDS011;50274;45.640;11.756;2024-02-23T04:20:31;7.03;;;3.53;;
63016;SDS011;50274;45.640;11.756;2024-02-23T04:22:58;5.73;;;3.03;;
63016;SDS011;50274;45.640;11.756;2024-02-23T04:25:24;7.35;;;3.20;;
63016;SDS011;50274;45.640;11.756;2024-02-23T04:27:50;7.22;;;3.22;;
63016;SDS011;50274;45.640;11.756;2024-02-23T04:30:16;6.07;;;3.08;;
63016;SDS011;50274;45.640;11.756;2024-02-23T04:32:41;7.87;;;2.80;;
63016;SDS011;50274;45.640;11.756;2024-02-23T04:35:09;6.50;;;2.60;;
63016;SDS011;50274;45.640;11.756;2024-02-23T04:37:35;6.97;;;3.10;;
63016;SDS011;50274;45.640;11.756;2024-02-23T04:40:00;7.83;;;3.50;;
63016;SDS011;50274;45.640;11.756;2024-02-23T04:42:28;7.00;;;2.53;;
63016;SDS011;50274;45.640;11.756;2024-02-23T04:44:54;7.82;;;2.90;;
63016;SDS011;50274;45.640;11.756;2024-02-23T04:47:20;6.70;;;2.97;;
63016;SDS011;50274;45.640;11.756;2024-02-23T04:49:46;4.88;;;2.47;;
63016;SDS011;50274;45.640;11.756;2024-02-23T04:52:12;5.30;;;2.50;;
63016;SDS011;50274;45.640;11.756;2024-02-23T04:54:37;5.53;;;2.65;;
63016;SDS011;50274;45.640;11.756;2024-02-23T04:57:03;6.20;;;2.90;;
63016;SDS011;50274;45.640;11.756;2024-02-23T04:59:29;5.43;;;2.20;;
63016;SDS011;50274;45.640;11.756;2024-02-23T05:01:57;6.28;;;2.50;;
63016;SDS011;50274;45.640;11.756;2024-02-23T05:04:24;6.35;;;2.67;;
63016;SDS011;50274;45.640;11.756;2024-02-23T05:06:51;5.45;;;2.60;;
63016;SDS011;50274;45.640;11.756;2024-02-23T05:09:17;5.60;;;2.58;;
63016;SDS011;50274;45.640;11.756;2024-02-23T05:11:43;5.50;;;2.67;;
63016;SDS011;50274;45.640;11.756;2024-02-23T05:14:11;5.95;;;2.63;;
63016;SDS011;50274;45.640;11.756;2024-02-23T05:16:36;6.40;;;2.72;;
63016;SDS011;50274;45.640;11.756;2024-02-23T05:19:02;7.20;;;2.80;;
63016;SDS011;50274;45.640;11.756;2024-02-23T05:21:28;6.72;;;2.97;;
63016;SDS011;50274;45.640;11.756;2024-02-23T05:23:54;6.37;;;2.83;;
63016;SDS011;50274;45.640;11.756;2024-02-23T05:26:20;7.65;;;3.00;;
63016;SDS011;50274;45.640;11.756;2024-02-23T05:28:46;5.65;;;2.78;;
63016;SDS011;50274;45.640;11.756;2024-02-23T05:31:11;8.33;;;3.07;;
63016;SDS011;50274;45.640;11.756;2024-02-23T05:33:40;6.13;;;2.75;;
63016;SDS011;50274;45.640;11.756;2024-02-23T05:36:07;6.72;;;2.92;;
63016;SDS011;50274;45.640;11.756;2024-02-23T05:38:33;7.35;;;3.10;;
63016;SDS011;50274;45.640;11.756;2024-02-23T05:40:58;6.17;;;3.00;;
63016;SDS011;50274;45.640;11.756;2024-02-23T05:43:24;9.23;;;3.58;;
63016;SDS011;50274;45.640;11.756;2024-02-23T05:45:50;8.73;;;3.50;;
63016;SDS011;50274;45.640;11.756;2024-02-23T05:48:16;7.65;;;3.50;;
63016;SDS011;50274;45.640;11.756;2024-02-23T05:50:44;8.10;;;3.40;;
63016;SDS011;50274;45.640;11.756;2024-02-23T05:53:09;7.38;;;3.55;;
63016;SDS011;50274;45.640;11.756;2024-02-23T05:55:35;7.93;;;3.70;;
63016;SDS011;50274;45.640;11.756;2024-02-23T05:58:01;10.30;;;4.20;;
63016;SDS011;50274;45.640;11.756;2024-02-23T06:00:28;9.40;;;3.90;;
63016;SDS011;50274;45.640;11.756;2024-02-23T06:02:56;8.20;;;3.90;;
63016;SDS011;50274;45.640;11.756;2024-02-23T06:05:21;9.63;;;3.80;;
63016;SDS011;50274;45.640;11.756;2024-02-23T06:07:47;8.77;;;3.92;;
63016;SDS011;50274;45.640;11.756;2024-02-23T06:10:13;8.47;;;4.13;;
63016;SDS011;50274;45.640;11.756;2024-02-23T06:12:39;12.88;;;5.13;;
63016;SDS011;50274;45.640;11.756;2024-02-23T06:15:05;10.53;;;4.60;;
63016;SDS011;50274;45.640;11.756;2024-02-23T06:17:31;9.27;;;4.10;;
63016;SDS011;50274;45.640;11.756;2024-02-23T06:19:57;10.10;;;4.03;;
63016;SDS011;50274;45.640;11.756;2024-02-23T06:22:24;7.90;;;4.20;;
63016;SDS011;50274;45.640;11.756;2024-02-23T06:24:50;12.48;;;5.00;;
63016;SDS011;50274;45.640;11.756;2024-02-23T06:27:16;11.77;;;4.77;;
63016;SDS011;50274;45.640;11.756;2024-02-23T06:29:42;11.00;;;4.80;;
63016;SDS011;50274;45.640;11.756;2024-02-23T06:32:08;11.60;;;4.40;;
63016;SDS011;50274;45.640;11.756;2024-02-23T06:34:34;10.27;;;4.37;;
63016;SDS011;50274;45.640;11.756;2024-02-23T06:37:00;13.25;;;4.10;;
63016;SDS011;50274;45.640;11.756;2024-02-23T06:39:26;10.85;;;4.40;;
63016;SDS011;50274;45.640;11.756;2024-02-23T06:41:52;8.13;;;3.60;;
63016;SDS011;50274;45.640;11.756;2024-02-23T06:44:18;12.15;;;4.15;;
63016;SDS011;50274;45.640;11.756;2024-02-23T06:46:44;8.73;;;4.20;;
63016;SDS011;50274;45.640;11.756;2024-02-23T06:49:10;11.73;;;4.07;;
63016;SDS011;50274;45.640;11.756;2024-02-23T06:51:35;12.27;;;4.38;;
63016;SDS011;50274;45.640;11.756;2024-02-23T06:54:01;9.80;;;3.88;;
63016;SDS011;50274;45.640;11.756;2024-02-23T06:56:28;9.67;;;4.17;;
63016;SDS011;50274;45.640;11.756;2024-02-23T06:58:54;7.93;;;3.92;;
63016;SDS011;50274;45.640;11.756;2024-02-23T07:01:20;8.13;;;4.07;;
63016;SDS011;50274;45.640;11.756;2024-02-23T07:03:46;10.07;;;4.07;;
63016;SDS011;50274;45.640;11.756;2024-02-23T07:06:14;12.57;;;4.30;;
63016;SDS011;50274;45.640;11.756;2024-02-23T07:08:43;8.30;;;4.00;;
63016;SDS011;50274;45.640;11.756;2024-02-23T07:11:09;9.45;;;4.13;;
63016;SDS011;50274;45.640;11.756;2024-02-23T07:13:36;12.23;;;4.20;;
63016;SDS011;50274;45.640;11.756;2024-02-23T07:16:02;11.33;;;4.17;;
63016;SDS011;50274;45.640;11.756;2024-02-23T07:18:28;12.10;;;4.40;;
63016;SDS011;50274;45.640;11.756;2024-02-23T07:21:00;9.68;;;4.13;;
63016;SDS011;50274;45.640;11.756;2024-02-23T07:23:35;13.32;;;4.32;;
63016;SDS011;50274;45.640;11.756;2024-02-23T07:26:01;8.77;;;3.93;;
63016;SDS011;50274;45.640;11.756;2024-02-23T07:28:26;12.65;;;4.82;;
63016;SDS011;50274;45.640;11.756;2024-02-23T07:30:52;9.73;;;4.30;;
63016;SDS011;50274;45.640;11.756;2024-02-23T07:33:18;11.45;;;4.20;;
63016;SDS011;50274;45.640;11.756;2024-02-23T07:35:44;11.18;;;3.90;;
63016;SDS011;50274;45.640;11.756;2024-02-23T07:38:10;9.37;;;4.03;;
63016;SDS011;50274;45.640;11.756;2024-02-23T07:40:35;12.35;;;5.15;;
63016;SDS011;50274;45.640;11.756;2024-02-23T07:43:01;10.88;;;4.43;;
63016;SDS011;50274;45.640;11.756;2024-02-23T07:45:27;11.47;;;5.13;;
63016;SDS011;50274;45.640;11.756;2024-02-23T07:47:53;12.93;;;4.72;;
63016;SDS011;50274;45.640;11.756;2024-02-23T07:50:19;11.13;;;4.82;;
63016;SDS011;50274;45.640;11.756;2024-02-23T07:52:45;11.23;;;4.70;;
63016;SDS011;50274;45.640;11.756;2024-02-23T07:55:11;11.52;;;4.25;;
63016;SDS011;50274;45.640;11.756;2024-02-23T07:57:37;11.20;;;4.43;;
63016;SDS011;50274;45.640;11.756;2024-02-23T08:00:05;14.23;;;4.93;;
63016;SDS011;50274;45.640;11.756;2024-02-23T08:02:32;12.05;;;4.10;;
63016;SDS011;50274;45.640;11.756;2024-02-23T08:04:58;12.20;;;5.13;;
63016;SDS011;50274;45.640;11.756;2024-02-23T08:07:24;11.23;;;4.77;;
63016;SDS011;50274;45.640;11.756;2024-02-23T08:09:53;13.40;;;5.10;;
63016;SDS011;50274;45.640;11.756;2024-02-23T08:12:19;13.23;;;4.80;;
63016;SDS011;50274;45.640;11.756;2024-02-23T08:14:45;10.05;;;4.53;;
63016;SDS011;50274;45.640;11.756;2024-02-23T08:17:12;11.90;;;5.00;;
63016;SDS011;50274;45.640;11.756;2024-02-23T08:19:38;10.95;;;4.25;;
63016;SDS011;50274;45.640;11.756;2024-02-23T08:22:04;9.55;;;3.97;;
63016;SDS011;50274;45.640;11.756;2024-02-23T08:24:30;14.53;;;4.47;;
63016;SDS011;50274;45.640;11.756;2024-02-23T08:26:56;11.40;;;4.55;;
63016;SDS011;50274;45.640;11.756;2024-02-23T08:29:22;12.63;;;4.35;;
63016;SDS011;50274;45.640;11.756;2024-02-23T08:31:48;10.97;;;4.60;;
63016;SDS011;50274;45.640;11.756;2024-02-23T08:34:14;8.93;;;4.00;;
63016;SDS011;50274;45.640;11.756;2024-02-23T08:36:40;8.98;;;4.28;;
63016;SDS011;50274;45.640;11.756;2024-02-23T08:39:05;11.97;;;3.63;;
63016;SDS011;50274;45.640;11.756;2024-02-23T08:41:33;10.35;;;4.00;;
63016;SDS011;50274;45.640;11.756;2024-02-23T08:43:58;8.87;;;3.83;;
63016;SDS011;50274;45.640;11.756;2024-02-23T08:46:24;10.55;;;4.03;;
63016;SDS011;50274;45.640;11.756;2024-02-23T08:48:50;10.88;;;4.20;;
63016;SDS011;50274;45.640;11.756;2024-02-23T08:51:16;9.03;;;3.97;;
63016;SDS011;50274;45.640;11.756;2024-02-23T08:53:42;11.68;;;3.83;;
63016;SDS011;50274;45.640;11.756;2024-02-23T08:56:08;12.07;;;4.15;;
63016;SDS011;50274;45.640;11.756;2024-02-23T08:58:34;8.10;;;3.90;;
63016;SDS011;50274;45.640;11.756;2024-02-23T09:01:00;12.47;;;5.10;;
63016;SDS011;50274;45.640;11.756;2024-02-23T09:03:26;10.70;;;4.25;;
63016;SDS011;50274;45.640;11.756;2024-02-23T09:05:52;9.83;;;4.33;;
63016;SDS011;50274;45.640;11.756;2024-02-23T09:08:18;14.20;;;4.63;;
63016;SDS011;50274;45.640;11.756;2024-02-23T09:10:44;8.10;;;4.10;;
63016;SDS011;50274;45.640;11.756;2024-02-23T09:13:10;16.70;;;4.57;;
63016;SDS011;50274;45.640;11.756;2024-02-23T09:15:36;10.65;;;4.53;;
63016;SDS011;50274;45.640;11.756;2024-02-23T09:18:02;10.35;;;3.88;;
63016;SDS011;50274;45.640;11.756;2024-02-23T09:20:28;12.60;;;4.20;;
63016;SDS011;50274;45.640;11.756;2024-02-23T09:22:53;11.88;;;4.47;;
63016;SDS011;50274;45.640;11.756;2024-02-23T09:25:19;13.63;;;5.40;;
63016;SDS011;50274;45.640;11.756;2024-02-23T09:27:46;11.37;;;4.37;;
63016;SDS011;50274;45.640;11.756;2024-02-23T09:30:12;11.60;;;4.50;;
63016;SDS011;50274;45.640;11.756;2024-02-23T09:32:38;13.10;;;3.97;;
63016;SDS011;50274;45.640;11.756;2024-02-23T09:35:07;11.43;;;3.70;;
63016;SDS011;50274;45.640;11.756;2024-02-23T09:37:33;8.70;;;3.87;;
63016;SDS011;50274;45.640;11.756;2024-02-23T09:39:59;11.32;;;4.00;;
63016;SDS011;50274;45.640;11.756;2024-02-23T09:42:25;8.75;;;3.65;;
63016;SDS011;50274;45.640;11.756;2024-02-23T09:44:58;10.27;;;4.38;;
63016;SDS011;50274;45.640;11.756;2024-02-23T09:47:28;9.63;;;4.43;;
63016;SDS011;50274;45.640;11.756;2024-02-23T09:49:54;11.18;;;4.25;;
63016;SDS011;50274;45.640;11.756;2024-02-23T09:52:21;10.35;;;4.10;;
63016;SDS011;50274;45.640;11.756;2024-02-23T09:54:48;12.77;;;4.20;;
63016;SDS011;50274;45.640;11.756;2024-02-23T09:57:15;10.10;;;4.13;;
63016;SDS011;50274;45.640;11.756;2024-02-23T09:59:42;10.07;;;4.53;;
63016;SDS011;50274;45.640;11.756;2024-02-23T10:02:08;9.10;;;4.47;;
63016;SDS011;50274;45.640;11.756;2024-02-23T10:04:38;9.80;;;4.53;;
63016;SDS011;50274;45.640;11.756;2024-02-23T10:07:06;11.55;;;4.20;;
63016;SDS011;50274;45.640;11.756;2024-02-23T10:09:32;8.85;;;4.20;;
63016;SDS011;50274;45.640;11.756;2024-02-23T10:11:58;9.47;;;4.57;;
63016;SDS011;50274;45.640;11.756;2024-02-23T10:14:23;10.20;;;4.45;;
63016;SDS011;50274;45.640;11.756;2024-02-23T10:16:50;12.13;;;5.25;;
63016;SDS011;50274;45.640;11.756;2024-02-23T10:19:19;9.23;;;4.65;;
63016;SDS011;50274;45.640;11.756;2024-02-23T10:21:45;13.53;;;5.30;;
63016;SDS011;50274;45.640;11.756;2024-02-23T10:24:12;10.43;;;5.10;;
63016;SDS011;50274;45.640;11.756;2024-02-23T10:26:38;11.68;;;4.78;;
63016;SDS011;50274;45.640;11.756;2024-02-23T10:29:04;10.70;;;4.45;;
63016;SDS011;50274;45.640;11.756;2024-02-23T10:31:34;11.70;;;4.70;;
63016;SDS011;50274;45.640;11.756;2024-02-23T10:34:09;11.05;;;4.88;;
63016;SDS011;50274;45.640;11.756;2024-02-23T10:36:40;9.18;;;3.88;;
63016;SDS011;50274;45.640;11.756;2024-02-23T10:39:10;9.48;;;4.25;;
63016;SDS011;50274;45.640;11.756;2024-02-23T10:41:41;10.53;;;4.53;;
63016;SDS011;50274;45.640;11.756;2024-02-23T10:44:21;10.65;;;4.15;;
63016;SDS011;50274;45.640;11.756;2024-02-23T10:46:47;8.27;;;4.72;;
63016;SDS011;50274;45.640;11.756;2024-02-23T10:49:19;7.75;;;4.15;;
63016;SDS011;50274;45.640;11.756;2024-02-23T10:51:51;9.15;;;4.00;;
63016;SDS011;50274;45.640;11.756;2024-02-23T10:54:17;7.53;;;3.40;;
63016;SDS011;50274;45.640;11.756;2024-02-23T10:56:49;7.30;;;3.75;;
63016;SDS011;50274;45.640;11.756;2024-02-23T10:59:19;8.10;;;4.28;;
63016;SDS011;50274;45.640;11.756;2024-02-23T11:01:51;10.85;;;4.28;;
63016;SDS011;50274;45.640;11.756;2024-02-23T11:04:19;9.40;;;4.28;;
63016;SDS011;50274;45.640;11.756;2024-02-23T11:06:50;9.53;;;4.70;;
63016;SDS011;50274;45.640;11.756;2024-02-23T11:09:17;9.15;;;4.53;;
63016;SDS011;50274;45.640;11.756;2024-02-23T11:11:56;11.77;;;4.55;;
63016;SDS011;50274;45.640;11.756;2024-02-23T11:14:30;9.85;;;4.32;;
63016;SDS011;50274;45.640;11.756;2024-02-23T11:16:57;8.57;;;4.20;;
63016;SDS011;50274;45.640;11.756;2024-02-23T11:19:31;8.17;;;4.07;;
63016;SDS011;50274;45.640;11.756;2024-02-23T11:22:05;6.85;;;3.58;;
63016;SDS011;50274;45.640;11.756;2024-02-23T11:24:34;9.05;;;3.78;;
63016;SDS011;50274;45.640;11.756;2024-02-23T11:27:12;7.00;;;3.55;;
63016;SDS011;50274;45.640;11.756;2024-02-23T11:29:39;7.78;;;3.88;;
63016;SDS011;50274;45.640;11.756;2024-02-23T11:32:15;8.10;;;3.30;;
63016;SDS011;50274;45.640;11.756;2024-02-23T11:34:41;8.38;;;3.42;;
63016;SDS011;50274;45.640;11.756;2024-02-23T11:37:09;7.00;;;3.47;;
63016;SDS011;50274;45.640;11.756;2024-02-23T11:39:37;8.63;;;3.53;;
63016;SDS011;50274;45.640;11.756;2024-02-23T11:42:04;6.43;;;3.23;;
63016;SDS011;50274;45.640;11.756;2024-02-23T11:44:31;11.68;;;4.97;;
63016;SDS011;50274;45.640;11.756;2024-02-23T11:46:58;13.95;;;6.28;;
63016;SDS011;50274;45.640;11.756;2024-02-23T11:49:28;7.90;;;4.30;;
63016;SDS011;50274;45.640;11.756;2024-02-23T11:51:54;10.93;;;4.63;;
63016;SDS011;50274;45.640;11.756;2024-02-23T11:54:21;9.68;;;4.82;;
63016;SDS011;50274;45.640;11.756;2024-02-23T11:56:48;9.55;;;4.85;;
63016;SDS011;50274;45.640;11.756;2024-02-23T11:59:15;8.43;;;4.60;;
63016;SDS011;50274;45.640;11.756;2024-02-23T12:01:41;9.45;;;4.75;;
63016;SDS011;50274;45.640;11.756;2024-02-23T12:04:08;9.00;;;4.30;;
63016;SDS011;50274;45.640;11.756;2024-02-23T12:06:34;8.02;;;3.72;;
63016;SDS011;50274;45.640;11.756;2024-02-23T12:09:00;7.38;;;4.03;;
63016;SDS011;50274;45.640;11.756;2024-02-23T12:11:26;8.95;;;4.25;;
63016;SDS011;50274;45.640;11.756;2024-02-23T12:13:53;10.07;;;4.17;;
63016;SDS011;50274;45.640;11.756;2024-02-23T12:16:20;8.15;;;4.30;;
63016;SDS011;50274;45.640;11.756;2024-02-23T12:18:52;10.23;;;4.72;;
63016;SDS011;50274;45.640;11.756;2024-02-23T12:21:20;9.23;;;4.47;;
63016;SDS011;50274;45.640;11.756;2024-02-23T12:23:48;10.07;;;4.20;;
63016;SDS011;50274;45.640;11.756;2024-02-23T12:26:15;8.70;;;4.20;;
63016;SDS011;50274;45.640;11.756;2024-02-23T12:28:42;8.90;;;3.97;;
63016;SDS011;50274;45.640;11.756;2024-02-23T12:31:09;8.57;;;4.20;;
63016;SDS011;50274;45.640;11.756;2024-02-23T12:33:36;8.60;;;3.72;;
63016;SDS011;50274;45.640;11.756;2024-02-23T12:36:04;8.27;;;3.87;;
63016;SDS011;50274;45.640;11.756;2024-02-23T12:38:31;7.95;;;4.20;;
63016;SDS011;50274;45.640;11.756;2024-02-23T12:40:57;9.25;;;4.72;;
63016;SDS011;50274;45.640;11.756;2024-02-23T12:43:24;11.98;;;4.20;;
63016;SDS011;50274;45.640;11.756;2024-02-23T12:45:50;8.90;;;4.80;;
63016;SDS011;50274;45.640;11.756;2024-02-23T12:48:17;8.03;;;4.10;;
63016;SDS011;50274;45.640;11.756;2024-02-23T12:50:43;8.18;;;3.75;;
63016;SDS011;50274;45.640;11.756;2024-02-23T12:56:04;7.68;;;3.80;;
63016;SDS011;50274;45.640;11.756;2024-02-23T12:58:37;8.13;;;4.63;;
63016;SDS011;50274;45.640;11.756;2024-02-23T13:01:04;10.53;;;4.10;;
63016;SDS011;50274;45.640;11.756;2024-02-23T13:03:32;10.23;;;4.50;;
63016;SDS011;50274;45.640;11.756;2024-02-23T13:05:58;8.10;;;4.32;;
63016;SDS011;50274;45.640;11.756;2024-02-23T13:08:25;8.82;;;4.40;;
63016;SDS011;50274;45.640;11.756;2024-02-23T13:10:51;8.07;;;4.10;;
63016;SDS011;50274;45.640;11.756;2024-02-23T13:13:19;7.70;;;4.20;;
63016;SDS011;50274;45.640;11.756;2024-02-23T13:15:45;8.25;;;4.18;;
63016;SDS011;50274;45.640;11.756;2024-02-23T13:18:12;9.00;;;4.07;;
63016;SDS011;50274;45.640;11.756;2024-02-23T13:20:38;7.30;;;4.00;;
63016;SDS011;50274;45.640;11.756;2024-02-23T13:23:09;10.63;;;4.47;;
63016;SDS011;50274;45.640;11.756;2024-02-23T13:25:36;7.70;;;4.10;;
63016;SDS011;50274;45.640;11.756;2024-02-23T13:28:04;9.05;;;4.20;;
63016;SDS011;50274;45.640;11.756;2024-02-23T13:30:31;7.55;;;4.43;;
63016;SDS011;50274;45.640;11.756;2024-02-23T13:32:57;8.45;;;4.38;;
63016;SDS011;50274;45.640;11.756;2024-02-23T13:35:23;8.93;;;4.28;;
63016;SDS011;50274;45.640;11.756;2024-02-23T13:37:49;7.63;;;4.20;;
63016;SDS011;50274;45.640;11.756;2024-02-23T13:40:15;8.85;;;4.50;;
63016;SDS011;50274;45.640;11.756;2024-02-23T13:42:41;8.77;;;4.30;;
63016;SDS011;50274;45.640;11.756;2024-02-23T13:45:09;8.52;;;4.80;;
63016;SDS011;50274;45.640;11.756;2024-02-23T13:47:35;8.17;;;3.97;;
63016;SDS011;50274;45.640;11.756;2024-02-23T13:50:01;8.48;;;3.60;;
63016;SDS011;50274;45.640;11.756;2024-02-23T13:52:27;9.55;;;4.15;;
63016;SDS011;50274;45.640;11.756;2024-02-23T13:54:54;8.35;;;4.60;;
63016;SDS011;50274;45.640;11.756;2024-02-23T13:57:20;7.90;;;4.40;;
63016;SDS011;50274;45.640;11.756;2024-02-23T13:59:45;7.93;;;4.10;;
63016;SDS011;50274;45.640;11.756;2024-02-23T14:02:11;6.88;;;2.95;;
63016;SDS011;50274;45.640;11.756;2024-02-23T14:04:37;4.63;;;2.13;;
63016;SDS011;50274;45.640;11.756;2024-02-23T14:07:03;6.57;;;2.10;;
63016;SDS011;50274;45.640;11.756;2024-02-23T14:09:29;6.22;;;2.20;;
63016;SDS011;50274;45.640;11.756;2024-02-23T14:11:56;4.45;;;2.22;;
63016;SDS011;50274;45.640;11.756;2024-02-23T14:14:22;6.35;;;2.58;;
63016;SDS011;50274;45.640;11.756;2024-02-23T14:16:48;4.83;;;2.20;;
63016;SDS011;50274;45.640;11.756;2024-02-23T14:19:14;5.45;;;2.25;;
63016;SDS011;50274;45.640;11.756;2024-02-23T14:21:40;4.80;;;2.20;;
63016;SDS011;50274;45.640;11.756;2024-02-23T14:24:06;5.83;;;2.53;;
63016;SDS011;50274;45.640;11.756;2024-02-23T14:26:32;6.70;;;3.25;;